Time;durP1;ratioP1;P1;durP2;ratioP2;P2;SDS_P1;SDS_P2;PMS_P1;PMS_P2;Temp;Humidity;BMP_temperature;BMP_pressure;BME280_temperature;BME280_humidity;BME280_pressure;Samples;Min_cycle;Max_cycle;Signal;HPM_P1;HPM_P2
2023/06/22 00:01:51;;;;;;;7.68;4.85;;;;;;;;;;5091898;28;20543;-67
2023/06/22 00:04:16;;;;;;;7.38;5.30;;;;;;;;;;5092063;28;20032;-65
2023/06/22 00:06:42;;;;;;;10.18;5.15;;;;;;;;;;5092108;28;20028;-66
2023/06/22 00:09:07;;;;;;;8.30;5.07;;;;;;;;;;5092050;28;20028;-65
2023/06/22 00:11:33;;;;;;;10.38;5.60;;;;;;;;;;5092099;28;20365;-64
2023/06/22 00:13:59;;;;;;;8.88;4.80;;;;;;;;;;5092090;28;20099;-65
2023/06/22 00:16:25;;;;;;;7.78;4.97;;;;;;;;;;5091765;28;20098;-64
2023/06/22 00:18:50;;;;;;;7.78;5.28;;;;;;;;;;5091880;28;20495;-65
2023/06/22 00:21:16;;;;;;;7.45;5.07;;;;;;;;;;5092037;28;20550;-64
2023/06/22 00:23:42;;;;;;;9.10;5.07;;;;;;;;;;5092079;28;20020;-64
2023/06/22 00:26:07;;;;;;;7.82;5.53;;;;;;;;;;5091986;28;20024;-64
2023/06/22 00:28:34;;;;;;;8.18;5.22;;;;;;;;;;5091860;28;20032;-64
2023/06/22 00:31:00;;;;;;;7.07;5.18;;;;;;;;;;5091624;28;20031;-65
2023/06/22 00:33:26;;;;;;;5.50;4.55;;;;;;;;;;5091918;28;20035;-65
2023/06/22 00:35:53;;;;;;;8.38;5.20;;;;;;;;;;5093845;28;20024;-64
2023/06/22 00:38:19;;;;;;;9.20;5.32;;;;;;;;;;5095244;28;20038;-64
2023/06/22 00:40:44;;;;;;;6.97;4.88;;;;;;;;;;5114602;28;20106;-64
2023/06/22 00:43:10;;;;;;;7.40;5.40;;;;;;;;;;5115772;28;20059;-64
2023/06/22 00:45:35;;;;;;;9.20;4.80;;;;;;;;;;5115299;28;20039;-66
2023/06/22 00:48:02;;;;;;;8.60;5.20;;;;;;;;;;5115931;28;20110;-67
2023/06/22 00:50:33;;;;;;;8.98;5.10;;;;;;;;;;5097233;28;20377;-65
2023/06/22 00:53:00;;;;;;;7.22;5.43;;;;;;;;;;5115654;28;20023;-65
2023/06/22 00:55:27;;;;;;;8.48;5.45;;;;;;;;;;5115845;28;20027;-65
2023/06/22 00:57:56;;;;;;;11.02;5.80;;;;;;;;;;5115294;28;20469;-65
2023/06/22 01:00:24;;;;;;;6.93;5.60;;;;;;;;;;5115687;28;20480;-66
2023/06/22 01:02:51;;;;;;;8.60;5.55;;;;;;;;;;5115604;28;20031;-64
2023/06/22 01:05:18;;;;;;;8.02;5.72;;;;;;;;;;5074856;28;20028;-64
2023/06/22 01:08:02;;;;;;;8.82;5.72;;;;;;;;;;5074775;28;20032;-65
2023/06/22 01:10:54;;;;;;;11.65;5.47;;;;;;;;;;5074780;28;20024;-64
2023/06/22 01:13:35;;;;;;;7.43;5.53;;;;;;;;;;5074597;28;20417;-64
2023/06/22 01:16:10;;;;;;;8.80;6.05;;;;;;;;;;5056721;28;20074;-65
2023/06/22 01:18:40;;;;;;;13.52;5.90;;;;;;;;;;5088024;28;20028;-67
2023/06/22 01:21:09;;;;;;;10.18;5.88;;;;;;;;;;5094815;28;20050;-66
2023/06/22 01:23:43;;;;;;;9.03;6.03;;;;;;;;;;5094914;28;20020;-67
2023/06/22 01:26:37;;;;;;;9.85;5.82;;;;;;;;;;5094740;28;20118;-66
2023/06/22 01:29:05;;;;;;;8.13;5.90;;;;;;;;;;5093826;28;20037;-68
2023/06/22 01:31:32;;;;;;;8.55;5.75;;;;;;;;;;5094671;28;20598;-67
2023/06/22 01:34:03;;;;;;;10.90;5.72;;;;;;;;;;5094419;28;20043;-68
2023/06/22 01:36:29;;;;;;;8.73;5.78;;;;;;;;;;5094585;28;20020;-68
2023/06/22 01:38:57;;;;;;;9.18;5.65;;;;;;;;;;5098255;28;20054;-64
2023/06/22 01:41:25;;;;;;;9.75;5.70;;;;;;;;;;5114622;28;20101;-64
2023/06/22 01:43:53;;;;;;;10.07;5.68;;;;;;;;;;5114711;28;20034;-64
2023/06/22 01:46:19;;;;;;;12.85;6.25;;;;;;;;;;5114093;28;20055;-68
2023/06/22 01:48:46;;;;;;;12.40;6.50;;;;;;;;;;5114329;28;20051;-68
2023/06/22 01:51:12;;;;;;;8.95;5.90;;;;;;;;;;5114635;28;20035;-68
2023/06/22 01:53:37;;;;;;;7.85;6.05;;;;;;;;;;5114414;28;20425;-64
2023/06/22 01:56:03;;;;;;;12.40;6.75;;;;;;;;;;5114333;28;20015;-63
2023/06/22 01:58:30;;;;;;;8.80;6.18;;;;;;;;;;5114581;28;20520;-65
2023/06/22 02:01:06;;;;;;;11.02;6.32;;;;;;;;;;5114481;28;20027;-65
2023/06/22 02:03:36;;;;;;;9.88;6.00;;;;;;;;;;5108667;28;20020;-63
2023/06/22 02:06:08;;;;;;;8.40;6.00;;;;;;;;;;5093910;28;20588;-68
2023/06/22 02:08:49;;;;;;;10.32;5.35;;;;;;;;;;5093828;28;20036;-67
2023/06/22 02:11:16;;;;;;;9.02;6.65;;;;;;;;;;5093539;28;20106;-67
2023/06/22 02:13:43;;;;;;;10.27;5.72;;;;;;;;;;5093762;28;20038;-67
2023/06/22 02:16:12;;;;;;;11.02;6.05;;;;;;;;;;5093733;28;20051;-68
2023/06/22 02:18:37;;;;;;;10.40;5.88;;;;;;;;;;5093435;28;20520;-67
2023/06/22 02:21:03;;;;;;;9.82;6.00;;;;;;;;;;5093607;28;20036;-67
2023/06/22 02:23:28;;;;;;;13.30;6.18;;;;;;;;;;5093702;28;20315;-67
2023/06/22 02:25:54;;;;;;;10.10;6.38;;;;;;;;;;5093240;28;20039;-68
2023/06/22 02:28:19;;;;;;;10.90;6.03;;;;;;;;;;5093591;28;20586;-68
2023/06/22 02:30:45;;;;;;;12.02;5.95;;;;;;;;;;5093389;28;20028;-67
2023/06/22 02:33:10;;;;;;;8.88;6.43;;;;;;;;;;5093405;28;20028;-67
2023/06/22 02:35:36;;;;;;;8.90;5.88;;;;;;;;;;5093393;28;20020;-66
2023/06/22 02:38:03;;;;;;;7.38;5.88;;;;;;;;;;5093154;28;20035;-67
2023/06/22 02:40:29;;;;;;;9.10;6.40;;;;;;;;;;5109835;28;20032;-67
2023/06/22 02:42:55;;;;;;;11.93;6.15;;;;;;;;;;5113628;28;20031;-67
2023/06/22 02:45:20;;;;;;;8.35;5.40;;;;;;;;;;5113362;28;20102;-67
2023/06/22 02:47:47;;;;;;;12.55;5.90;;;;;;;;;;5113542;28;20036;-67
2023/06/22 02:50:13;;;;;;;10.40;6.32;;;;;;;;;;5113531;28;20441;-66
2023/06/22 02:52:39;;;;;;;10.02;6.18;;;;;;;;;;5113427;28;20507;-68
2023/06/22 02:55:05;;;;;;;9.85;5.80;;;;;;;;;;5113091;28;20024;-67
2023/06/22 02:57:30;;;;;;;8.23;5.97;;;;;;;;;;5113332;28;20039;-66
2023/06/22 02:59:56;;;;;;;9.15;5.68;;;;;;;;;;5113369;28;20024;-67
2023/06/22 03:02:22;;;;;;;14.50;8.38;;;;;;;;;;5113448;28;20461;-68
2023/06/22 03:04:53;;;;;;;9.90;6.32;;;;;;;;;;5097024;28;20031;-67
2023/06/22 03:07:19;;;;;;;9.77;6.00;;;;;;;;;;5093031;28;20047;-67
2023/06/22 03:09:44;;;;;;;13.60;5.72;;;;;;;;;;5092578;28;20482;-67
2023/06/22 03:12:10;;;;;;;10.43;6.28;;;;;;;;;;5092906;28;20024;-67
2023/06/22 03:14:35;;;;;;;7.50;5.25;;;;;;;;;;5074653;28;20031;-68
2023/06/22 03:17:03;;;;;;;13.00;5.18;;;;;;;;;;5092614;28;20086;-66
2023/06/22 03:19:31;;;;;;;9.52;5.75;;;;;;;;;;5092636;28;20477;-67
2023/06/22 03:22:00;;;;;;;12.68;6.47;;;;;;;;;;5092732;28;20028;-67
2023/06/22 03:24:25;;;;;;;9.95;6.30;;;;;;;;;;5092491;28;20078;-68
2023/06/22 03:26:51;;;;;;;14.65;6.40;;;;;;;;;;5092733;28;20071;-67
2023/06/22 03:29:16;;;;;;;11.98;5.90;;;;;;;;;;5092463;28;20444;-67
2023/06/22 03:31:42;;;;;;;25.08;6.45;;;;;;;;;;5092560;28;20031;-68
2023/06/22 03:34:07;;;;;;;11.07;5.80;;;;;;;;;;5092592;28;20423;-67
2023/06/22 03:36:32;;;;;;;8.75;5.65;;;;;;;;;;5092487;28;20028;-67
2023/06/22 03:38:58;;;;;;;13.13;6.13;;;;;;;;;;5096339;28;20032;-67
2023/06/22 03:41:23;;;;;;;12.52;6.43;;;;;;;;;;5112495;28;20483;-67
2023/06/22 03:43:49;;;;;;;9.63;6.35;;;;;;;;;;5112797;28;20032;-66
2023/06/22 03:46:14;;;;;;;12.75;7.28;;;;;;;;;;5094439;28;20043;-67
2023/06/22 03:48:40;;;;;;;16.27;6.22;;;;;;;;;;5112809;28;20084;-65
2023/06/22 03:51:05;;;;;;;10.32;6.60;;;;;;;;;;5112786;28;20020;-67
2023/06/22 03:53:31;;;;;;;10.60;5.95;;;;;;;;;;5112602;28;20031;-67
2023/06/22 03:55:56;;;;;;;10.05;7.00;;;;;;;;;;5112689;28;20055;-68
2023/06/22 03:58:22;;;;;;;9.55;6.38;;;;;;;;;;5112628;28;20024;-66
2023/06/22 04:00:51;;;;;;;14.05;8.27;;;;;;;;;;5112630;28;20096;-68
2023/06/22 04:03:20;;;;;;;10.02;6.45;;;;;;;;;;5109126;28;20477;-64
2023/06/22 04:05:46;;;;;;;10.52;6.63;;;;;;;;;;5091889;28;20024;-64
2023/06/22 04:08:13;;;;;;;9.70;6.70;;;;;;;;;;5092034;28;20028;-63
2023/06/22 04:10:39;;;;;;;9.90;6.85;;;;;;;;;;5093786;28;20024;-63
2023/06/22 04:13:04;;;;;;;9.45;6.43;;;;;;;;;;5096118;28;20032;-63
2023/06/22 04:15:30;;;;;;;10.35;6.60;;;;;;;;;;5096145;28;20028;-64
2023/06/22 04:17:56;;;;;;;9.82;6.28;;;;;;;;;;5095791;28;20411;-66
2023/06/22 04:20:21;;;;;;;12.07;6.30;;;;;;;;;;5077816;28;20042;-64
2023/06/22 04:22:47;;;;;;;8.43;6.28;;;;;;;;;;5095732;28;20213;-64
2023/06/22 04:25:12;;;;;;;11.35;5.90;;;;;;;;;;5095885;28;20123;-63
2023/06/22 04:27:40;;;;;;;15.50;6.25;;;;;;;;;;5095752;28;20027;-65
2023/06/22 04:30:06;;;;;;;13.35;4.78;;;;;;;;;;5095850;28;20225;-64
2023/06/22 04:32:32;;;;;;;9.02;4.82;;;;;;;;;;5095759;28;20020;-64
2023/06/22 04:35:00;;;;;;;8.57;5.05;;;;;;;;;;5095796;28;20020;-63
2023/06/22 04:37:26;;;;;;;12.00;4.57;;;;;;;;;;5095454;28;20023;-65
2023/06/22 04:39:51;;;;;;;10.32;4.28;;;;;;;;;;5107277;28;20072;-63
2023/06/22 04:42:16;;;;;;;8.93;3.78;;;;;;;;;;5115775;28;20385;-65
2023/06/22 04:44:42;;;;;;;7.30;4.15;;;;;;;;;;5115903;28;20027;-63
2023/06/22 04:47:10;;;;;;;5.75;4.32;;;;;;;;;;5115544;28;20050;-64
2023/06/22 04:49:37;;;;;;;6.88;4.38;;;;;;;;;;5115670;28;20032;-64
2023/06/22 04:52:04;;;;;;;9.85;5.85;;;;;;;;;;5115444;28;20105;-64
2023/06/22 04:54:32;;;;;;;14.23;5.60;;;;;;;;;;5115628;28;20031;-63
2023/06/22 04:57:03;;;;;;;12.75;4.30;;;;;;;;;;5115753;28;20030;-65
2023/06/22 04:59:30;;;;;;;10.25;4.57;;;;;;;;;;5115699;28;20432;-64
2023/06/22 05:01:59;;;;;;;11.98;5.50;;;;;;;;;;5115456;28;20019;-67
2023/06/22 05:04:27;;;;;;;8.85;4.32;;;;;;;;;;5102198;28;20067;-65
2023/06/22 05:06:53;;;;;;;10.23;4.53;;;;;;;;;;5095137;28;20032;-63
2023/06/22 05:09:19;;;;;;;10.15;4.65;;;;;;;;;;5095040;28;20024;-67
2023/06/22 05:11:45;;;;;;;10.77;4.13;;;;;;;;;;5094817;28;20549;-67
2023/06/22 05:14:10;;;;;;;10.85;5.25;;;;;;;;;;5094898;28;20028;-68
2023/06/22 05:16:37;;;;;;;8.07;5.38;;;;;;;;;;5094811;28;20032;-68
2023/06/22 05:19:03;;;;;;;8.32;4.97;;;;;;;;;;5094224;28;20489;-67
2023/06/22 05:21:30;;;;;;;10.85;4.70;;;;;;;;;;5093607;28;20020;-66
2023/06/22 05:23:59;;;;;;;8.32;4.72;;;;;;;;;;5094372;28;20370;-68
2023/06/22 05:26:26;;;;;;;8.10;4.50;;;;;;;;;;5094750;28;20095;-68
2023/06/22 05:28:52;;;;;;;11.07;4.75;;;;;;;;;;5094592;28;20479;-67
2023/06/22 05:31:21;;;;;;;9.35;4.63;;;;;;;;;;5094583;28;20115;-68
2023/06/22 05:33:48;;;;;;;9.60;4.57;;;;;;;;;;5094292;28;20024;-68
2023/06/22 05:36:14;;;;;;;7.80;4.15;;;;;;;;;;5094185;28;20253;-68
2023/06/22 05:38:40;;;;;;;15.20;4.85;;;;;;;;;;5095733;28;20032;-68
2023/06/22 05:41:06;;;;;;;8.13;4.40;;;;;;;;;;5114757;28;20112;-68
2023/06/22 05:43:32;;;;;;;14.18;4.55;;;;;;;;;;5114759;28;20046;-67
2023/06/22 05:46:00;;;;;;;5.93;3.90;;;;;;;;;;5114424;28;20552;-67
2023/06/22 05:48:26;;;;;;;9.05;4.00;;;;;;;;;;5114362;28;20031;-67
2023/06/22 05:50:52;;;;;;;8.68;3.70;;;;;;;;;;5114539;28;20081;-68
2023/06/22 05:53:18;;;;;;;8.20;4.05;;;;;;;;;;5114201;28;20062;-67
2023/06/22 05:55:43;;;;;;;11.10;4.07;;;;;;;;;;5114022;28;20055;-68
2023/06/22 05:58:09;;;;;;;12.02;3.65;;;;;;;;;;5114514;28;20020;-68
2023/06/22 06:00:35;;;;;;;8.20;3.95;;;;;;;;;;5114251;28;20122;-68
2023/06/22 06:03:03;;;;;;;7.00;3.47;;;;;;;;;;5113027;28;20031;-68
2023/06/22 06:05:32;;;;;;;8.38;3.20;;;;;;;;;;5093694;28;20039;-68
2023/06/22 06:07:59;;;;;;;6.97;3.23;;;;;;;;;;5093785;28;20052;-68
2023/06/22 06:10:25;;;;;;;9.95;3.20;;;;;;;;;;5093624;28;20288;-68
2023/06/22 06:12:50;;;;;;;9.20;3.30;;;;;;;;;;5093828;28;20081;-66
2023/06/22 06:15:16;;;;;;;7.15;3.20;;;;;;;;;;5093562;28;20035;-66
2023/06/22 06:17:46;;;;;;;7.40;3.30;;;;;;;;;;5093170;28;20031;-66
2023/06/22 06:20:12;;;;;;;8.88;3.30;;;;;;;;;;5087220;28;20024;-66
2023/06/22 06:22:37;;;;;;;10.23;3.40;;;;;;;;;;5080440;28;20070;-65
2023/06/22 06:25:03;;;;;;;12.18;3.55;;;;;;;;;;5073279;28;20029;-66
2023/06/22 06:27:30;;;;;;;7.25;3.53;;;;;;;;;;5073266;28;20024;-66
2023/06/22 06:29:55;;;;;;;17.85;3.58;;;;;;;;;;5077591;28;20058;-67
2023/06/22 06:32:21;;;;;;;8.20;2.90;;;;;;;;;;5092128;28;20474;-67
2023/06/22 06:34:46;;;;;;;5.93;2.97;;;;;;;;;;5092159;28;20103;-63
2023/06/22 06:37:11;;;;;;;6.88;3.25;;;;;;;;;;5093282;28;20028;-64
2023/06/22 06:39:37;;;;;;;6.32;2.90;;;;;;;;;;5094826;28;20432;-63
2023/06/22 06:42:03;;;;;;;5.40;3.10;;;;;;;;;;5094892;28;20104;-64
2023/06/22 06:44:28;;;;;;;5.35;2.80;;;;;;;;;;5096951;28;20378;-64
2023/06/22 06:46:54;;;;;;;8.20;3.28;;;;;;;;;;5107285;28;20625;-64
2023/06/22 06:49:19;;;;;;;48.42;5.75;;;;;;;;;;5101656;28;20028;-64
2023/06/22 06:51:45;;;;;;;12.88;3.50;;;;;;;;;;5100263;28;20023;-65
2023/06/22 06:54:10;;;;;;;16.50;4.28;;;;;;;;;;5108875;28;20020;-67
2023/06/22 06:56:36;;;;;;;5.03;2.90;;;;;;;;;;5082635;28;20039;-64
2023/06/22 06:59:01;;;;;;;7.70;3.28;;;;;;;;;;5089934;28;20028;-64
2023/06/22 07:01:27;;;;;;;27.63;5.78;;;;;;;;;;5076103;28;20032;-64
2023/06/22 07:03:53;;;;;;;38.88;10.13;;;;;;;;;;5092336;28;20032;-64
2023/06/22 07:06:18;;;;;;;13.45;4.05;;;;;;;;;;5092595;28;20020;-65
2023/06/22 07:08:44;;;;;;;7.10;2.78;;;;;;;;;;5092507;28;20351;-65
2023/06/22 07:11:09;;;;;;;5.25;2.70;;;;;;;;;;5092483;28;20105;-65
2023/06/22 07:13:35;;;;;;;9.20;3.58;;;;;;;;;;5080320;28;20024;-65
2023/06/22 07:16:00;;;;;;;5.82;3.10;;;;;;;;;;5079958;28;20067;-64
2023/06/22 07:18:26;;;;;;;3.92;2.40;;;;;;;;;;5099475;28;20032;-65
2023/06/22 07:20:52;;;;;;;5.65;2.70;;;;;;;;;;5094972;28;20037;-64
2023/06/22 07:23:18;;;;;;;3.67;2.25;;;;;;;;;;5097921;28;20024;-66
2023/06/22 07:25:43;;;;;;;3.88;2.40;;;;;;;;;;5109242;28;20015;-65
2023/06/22 07:28:09;;;;;;;5.72;2.72;;;;;;;;;;5111073;28;20477;-65
2023/06/22 07:30:34;;;;;;;8.23;3.13;;;;;;;;;;5092156;28;20035;-64
2023/06/22 07:33:03;;;;;;;8.20;3.10;;;;;;;;;;5092107;28;20115;-65
2023/06/22 07:35:30;;;;;;;6.73;3.20;;;;;;;;;;5092206;28;20024;-65
2023/06/22 07:37:55;;;;;;;5.78;3.00;;;;;;;;;;5095016;28;20024;-66
2023/06/22 07:40:21;;;;;;;5.20;2.67;;;;;;;;;;5107789;28;20556;-64
2023/06/22 07:42:51;;;;;;;6.00;2.50;;;;;;;;;;5112498;28;20020;-65
2023/06/22 07:45:17;;;;;;;7.88;2.50;;;;;;;;;;5113523;28;20024;-66
2023/06/22 07:47:42;;;;;;;4.55;2.50;;;;;;;;;;5116389;28;20042;-68
2023/06/22 07:50:08;;;;;;;6.00;2.67;;;;;;;;;;5116393;28;20114;-67
2023/06/22 07:52:34;;;;;;;4.93;2.67;;;;;;;;;;5108097;28;20031;-65
2023/06/22 07:54:59;;;;;;;5.43;2.60;;;;;;;;;;5095945;28;20016;-65
2023/06/22 07:57:33;;;;;;;5.75;2.58;;;;;;;;;;5096029;28;20040;-66
2023/06/22 08:00:24;;;;;;;4.82;2.53;;;;;;;;;;5095942;28;20077;-64
2023/06/22 08:02:48;;;;;;;3.10;1.88;;;;;;;;;;5075433;28;20089;-65
2023/06/22 08:05:15;;;;;;;3.83;2.10;;;;;;;;;;5077045;28;20480;-69
2023/06/22 08:07:43;;;;;;;5.50;2.40;;;;;;;;;;5095814;28;20018;-63
2023/06/22 08:10:11;;;;;;;6.43;2.50;;;;;;;;;;5095794;28;20028;-67
2023/06/22 08:12:36;;;;;;;4.13;1.85;;;;;;;;;;5095704;28;20024;-65
2023/06/22 08:15:02;;;;;;;4.97;2.22;;;;;;;;;;5095650;28;20461;-66
2023/06/22 08:17:28;;;;;;;3.38;1.95;;;;;;;;;;5095814;28;20106;-66
2023/06/22 08:19:53;;;;;;;5.85;2.20;;;;;;;;;;5095584;28;20183;-67
2023/06/22 08:22:19;;;;;;;3.38;2.10;;;;;;;;;;5095718;28;20058;-66
2023/06/22 08:24:44;;;;;;;3.97;1.98;;;;;;;;;;5095607;28;20477;-68
2023/06/22 08:27:14;;;;;;;3.78;2.10;;;;;;;;;;5095353;28;20063;-65
2023/06/22 08:29:42;;;;;;;3.60;2.00;;;;;;;;;;5111271;28;20028;-67
2023/06/22 08:32:11;;;;;;;4.38;2.40;;;;;;;;;;5115856;28;20027;-67
2023/06/22 08:34:40;;;;;;;3.90;2.08;;;;;;;;;;5115844;28;20019;-68
2023/06/22 08:37:06;;;;;;;3.53;2.00;;;;;;;;;;5113769;28;20015;-68
2023/06/22 08:39:32;;;;;;;4.35;1.92;;;;;;;;;;5104239;28;20076;-67
2023/06/22 08:41:57;;;;;;;9.63;2.30;;;;;;;;;;5115218;28;20024;-68
2023/06/22 08:44:23;;;;;;;5.00;2.10;;;;;;;;;;5115631;28;20027;-68
2023/06/22 08:46:48;;;;;;;5.03;1.95;;;;;;;;;;5115536;28;20043;-68
2023/06/22 08:49:14;;;;;;;5.75;2.05;;;;;;;;;;5115395;28;20027;-68
2023/06/22 08:51:39;;;;;;;6.90;2.10;;;;;;;;;;5114578;28;20046;-68
2023/06/22 08:54:05;;;;;;;3.33;2.17;;;;;;;;;;5094936;28;20020;-67
2023/06/22 08:56:30;;;;;;;3.42;2.17;;;;;;;;;;5094611;28;20089;-69
2023/06/22 08:58:55;;;;;;;4.88;2.50;;;;;;;;;;5094965;28;20024;-68
2023/06/22 09:01:21;;;;;;;3.58;2.10;;;;;;;;;;5094805;28;20024;-68
2023/06/22 09:03:53;;;;;;;5.28;2.17;;;;;;;;;;5094644;28;20026;-68
2023/06/22 09:06:19;;;;;;;4.15;2.50;;;;;;;;;;5094895;28;20108;-68
2023/06/22 09:08:44;;;;;;;6.68;2.42;;;;;;;;;;5094741;28;20443;-68
2023/06/22 09:11:10;;;;;;;5.57;2.63;;;;;;;;;;5093776;28;20028;-68
2023/06/22 09:13:36;;;;;;;4.65;2.10;;;;;;;;;;5094585;28;20100;-68
2023/06/22 09:16:02;;;;;;;3.70;2.00;;;;;;;;;;5094776;28;20026;-68
2023/06/22 09:18:27;;;;;;;3.05;2.03;;;;;;;;;;5094529;28;20110;-68
2023/06/22 09:20:53;;;;;;;4.47;2.33;;;;;;;;;;5094594;28;20070;-67
2023/06/22 09:23:18;;;;;;;4.88;2.05;;;;;;;;;;5094464;28;20024;-67
2023/06/22 09:25:43;;;;;;;6.75;2.10;;;;;;;;;;5094083;28;20032;-67
2023/06/22 09:28:09;;;;;;;4.70;2.08;;;;;;;;;;5098012;28;20019;-65
2023/06/22 09:30:34;;;;;;;3.55;2.03;;;;;;;;;;5114710;28;20032;-64
2023/06/22 09:33:01;;;;;;;2.85;1.80;;;;;;;;;;5096602;28;20023;-64
2023/06/22 09:35:26;;;;;;;3.13;1.83;;;;;;;;;;5114792;28;20035;-64
2023/06/22 09:37:51;;;;;;;3.65;2.05;;;;;;;;;;5105994;28;20020;-64
2023/06/22 09:40:17;;;;;;;3.95;1.88;;;;;;;;;;5109083;28;20469;-65
2023/06/22 09:42:42;;;;;;;2.63;1.80;;;;;;;;;;5114427;28;20076;-64
2023/06/22 09:45:08;;;;;;;3.17;1.80;;;;;;;;;;5095854;28;20032;-66
2023/06/22 09:47:34;;;;;;;5.22;2.30;;;;;;;;;;5093906;28;20154;-66
2023/06/22 09:49:59;;;;;;;4.15;2.03;;;;;;;;;;5093755;28;20036;-64
2023/06/22 09:52:25;;;;;;;4.25;2.00;;;;;;;;;;5093884;28;20103;-64
2023/06/22 09:54:50;;;;;;;5.82;2.20;;;;;;;;;;5093798;28;20093;-64
2023/06/22 09:57:16;;;;;;;3.25;1.90;;;;;;;;;;5093839;28;20084;-66
2023/06/22 09:59:41;;;;;;;3.00;2.20;;;;;;;;;;5093883;28;20059;-64
2023/06/22 10:02:07;;;;;;;5.07;1.95;;;;;;;;;;5093879;28;20051;-63
2023/06/22 10:04:34;;;;;;;2.83;2.13;;;;;;;;;;5093695;28;20024;-64
2023/06/22 10:07:00;;;;;;;3.55;1.98;;;;;;;;;;5093651;28;20016;-65
2023/06/22 10:09:25;;;;;;;6.30;2.22;;;;;;;;;;5092744;28;20024;-67
2023/06/22 10:11:50;;;;;;;3.38;2.20;;;;;;;;;;5093741;28;20479;-68
2023/06/22 10:14:16;;;;;;;7.70;2.17;;;;;;;;;;5093740;28;20522;-68
2023/06/22 10:16:42;;;;;;;3.33;1.95;;;;;;;;;;5093492;28;20047;-64
2023/06/22 10:19:07;;;;;;;4.53;2.00;;;;;;;;;;5093200;28;20024;-64
2023/06/22 10:21:34;;;;;;;6.40;2.20;;;;;;;;;;5093342;28;20044;-64
2023/06/22 10:24:05;;;;;;;2.67;1.92;;;;;;;;;;5074647;28;20426;-64
2023/06/22 10:26:31;;;;;;;5.50;2.00;;;;;;;;;;5093247;28;20051;-64
2023/06/22 10:28:56;;;;;;;3.00;1.90;;;;;;;;;;5085267;28;20063;-64
2023/06/22 10:31:22;;;;;;;3.53;1.80;;;;;;;;;;5113361;28;20015;-64
2023/06/22 10:33:49;;;;;;;3.55;2.15;;;;;;;;;;5113420;28;20024;-67
2023/06/22 10:36:15;;;;;;;6.82;2.70;;;;;;;;;;5113299;28;20030;-67
2023/06/22 10:38:40;;;;;;;6.55;1.98;;;;;;;;;;5099690;28;20436;-67
2023/06/22 10:41:06;;;;;;;5.55;2.22;;;;;;;;;;5113132;28;20027;-66
2023/06/22 10:43:32;;;;;;;4.22;2.10;;;;;;;;;;5113296;28;20484;-64
2023/06/22 10:45:57;;;;;;;7.15;2.30;;;;;;;;;;5112886;28;20167;-65
2023/06/22 10:48:23;;;;;;;3.88;2.20;;;;;;;;;;5113274;28;20031;-68
2023/06/22 10:50:48;;;;;;;4.10;2.10;;;;;;;;;;5113118;28;20035;-66
2023/06/22 10:53:13;;;;;;;4.10;2.50;;;;;;;;;;5098808;28;20035;-67
2023/06/22 10:55:39;;;;;;;4.65;2.05;;;;;;;;;;5092738;28;20020;-67
2023/06/22 10:58:04;;;;;;;4.10;2.30;;;;;;;;;;5092849;28;20024;-68
2023/06/22 11:00:30;;;;;;;3.95;2.60;;;;;;;;;;5092796;28;20074;-67
2023/06/22 11:02:55;;;;;;;6.68;2.42;;;;;;;;;;5092839;28;20051;-72
2023/06/22 11:05:20;;;;;;;4.38;2.38;;;;;;;;;;5092764;28;20523;-71
2023/06/22 11:07:46;;;;;;;4.07;2.50;;;;;;;;;;5092431;28;20380;-71
2023/06/22 11:10:13;;;;;;;4.30;2.30;;;;;;;;;;5092528;28;20071;-71
2023/06/22 11:12:38;;;;;;;5.13;2.10;;;;;;;;;;5092795;28;20020;-71
2023/06/22 11:15:04;;;;;;;6.38;2.40;;;;;;;;;;5092664;28;20122;-71
2023/06/22 11:17:29;;;;;;;3.80;2.47;;;;;;;;;;5092364;28;20081;-71
2023/06/22 11:19:55;;;;;;;3.22;2.17;;;;;;;;;;5091567;28;20032;-71
2023/06/22 11:22:20;;;;;;;4.03;2.35;;;;;;;;;;5092279;28;20470;-71
2023/06/22 11:24:46;;;;;;;6.72;2.40;;;;;;;;;;5092659;28;20020;-71
2023/06/22 11:27:11;;;;;;;4.30;2.40;;;;;;;;;;5092146;28;20028;-71
2023/06/22 11:29:38;;;;;;;3.63;2.20;;;;;;;;;;5108240;28;20016;-71
2023/06/22 11:32:04;;;;;;;5.80;2.60;;;;;;;;;;5112870;28;20074;-71
2023/06/22 11:34:30;;;;;;;18.38;4.03;;;;;;;;;;5112873;28;20020;-71
2023/06/22 11:36:55;;;;;;;6.63;2.35;;;;;;;;;;5112203;28;20529;-71
2023/06/22 11:39:20;;;;;;;4.35;2.35;;;;;;;;;;5099393;28;20481;-71
2023/06/22 11:41:46;;;;;;;3.60;2.50;;;;;;;;;;5112682;28;20114;-71
2023/06/22 11:44:11;;;;;;;3.42;2.40;;;;;;;;;;5094531;28;20070;-71
2023/06/22 11:46:37;;;;;;;3.75;2.42;;;;;;;;;;5112593;28;20405;-71
2023/06/22 11:49:02;;;;;;;4.95;2.30;;;;;;;;;;5112618;28;20130;-71
2023/06/22 11:51:28;;;;;;;5.22;2.55;;;;;;;;;;5112288;28;20024;-71
2023/06/22 11:53:53;;;;;;;4.82;2.53;;;;;;;;;;5092655;28;20035;-71
2023/06/22 11:56:19;;;;;;;3.00;2.40;;;;;;;;;;5092386;28;20024;-71
2023/06/22 11:58:44;;;;;;;8.68;2.85;;;;;;;;;;5091987;28;20035;-71
2023/06/22 12:01:10;;;;;;;5.68;2.50;;;;;;;;;;5092157;28;20032;-71
2023/06/22 12:03:35;;;;;;;4.50;2.70;;;;;;;;;;5092160;28;20453;-71
2023/06/22 12:06:01;;;;;;;5.80;2.67;;;;;;;;;;5091917;28;20221;-71
2023/06/22 12:08:26;;;;;;;5.05;2.50;;;;;;;;;;5092101;28;20023;-71
2023/06/22 12:10:53;;;;;;;7.57;4.18;;;;;;;;;;5091792;28;20031;-71
2023/06/22 12:13:19;;;;;;;7.93;4.22;;;;;;;;;;5092123;28;20381;-69
2023/06/22 12:15:44;;;;;;;9.90;4.22;;;;;;;;;;5091996;28;20024;-70
2023/06/22 12:18:10;;;;;;;5.90;4.07;;;;;;;;;;5092053;28;20477;-70
2023/06/22 12:20:36;;;;;;;6.13;3.60;;;;;;;;;;5091824;28;20107;-69
2023/06/22 12:23:01;;;;;;;7.53;3.90;;;;;;;;;;5091803;28;20058;-69
2023/06/22 12:25:26;;;;;;;6.00;4.07;;;;;;;;;;5092040;28;20510;-69
2023/06/22 12:27:52;;;;;;;6.60;4.00;;;;;;;;;;5093183;28;20032;-70
2023/06/22 12:30:17;;;;;;;7.88;3.83;;;;;;;;;;5112164;28;20032;-70
2023/06/22 12:32:43;;;;;;;8.27;4.05;;;;;;;;;;5115839;28;20058;-71
2023/06/22 12:35:13;;;;;;;8.63;4.00;;;;;;;;;;5115694;28;20027;-72
2023/06/22 12:37:42;;;;;;;9.52;4.80;;;;;;;;;;5109227;28;20035;-71
2023/06/22 12:40:08;;;;;;;10.93;4.43;;;;;;;;;;5109282;28;20110;-71
2023/06/22 12:42:34;;;;;;;8.68;4.40;;;;;;;;;;5115730;28;20426;-71
2023/06/22 12:44:59;;;;;;;5.78;4.03;;;;;;;;;;5115619;28;20111;-71
2023/06/22 12:47:25;;;;;;;9.95;4.53;;;;;;;;;;5115523;28;20130;-70
2023/06/22 12:49:50;;;;;;;6.72;3.88;;;;;;;;;;5115269;28;20039;-71
2023/06/22 12:52:15;;;;;;;7.45;4.00;;;;;;;;;;5109697;28;20388;-71
2023/06/22 12:54:41;;;;;;;6.68;4.35;;;;;;;;;;5095389;28;20496;-72
2023/06/22 12:57:06;;;;;;;6.53;3.92;;;;;;;;;;5095032;28;20373;-71
2023/06/22 12:59:32;;;;;;;4.70;3.58;;;;;;;;;;5095074;28;20032;-71
2023/06/22 13:01:57;;;;;;;5.53;3.47;;;;;;;;;;5094934;28;20021;-72
2023/06/22 13:04:23;;;;;;;5.18;3.58;;;;;;;;;;5094791;28;20027;-72
2023/06/22 13:06:48;;;;;;;5.85;3.53;;;;;;;;;;5095130;28;20351;-70
2023/06/22 13:09:15;;;;;;;10.15;3.42;;;;;;;;;;5094687;28;20564;-70
2023/06/22 13:11:41;;;;;;;7.65;4.20;;;;;;;;;;5094831;28;20095;-71
2023/06/22 13:14:06;;;;;;;6.13;3.60;;;;;;;;;;5094921;28;20028;-71
2023/06/22 13:16:32;;;;;;;5.80;3.47;;;;;;;;;;5094782;28;20024;-72
2023/06/22 13:18:57;;;;;;;5.72;3.70;;;;;;;;;;5094371;28;20051;-72
2023/06/22 13:21:23;;;;;;;7.03;3.08;;;;;;;;;;5094609;28;20058;-72
2023/06/22 13:23:48;;;;;;;8.85;3.47;;;;;;;;;;5094625;28;20038;-72
2023/06/22 13:26:13;;;;;;;6.20;3.55;;;;;;;;;;5094622;28;20500;-72
2023/06/22 13:28:39;;;;;;;5.57;3.25;;;;;;;;;;5102274;28;20015;-72
2023/06/22 13:31:05;;;;;;;4.47;3.03;;;;;;;;;;5114637;28;20441;-72
2023/06/22 13:33:31;;;;;;;6.15;3.10;;;;;;;;;;5114624;28;20362;-72
2023/06/22 13:35:56;;;;;;;5.78;2.90;;;;;;;;;;5114796;28;20039;-71
2023/06/22 13:38:22;;;;;;;4.88;3.00;;;;;;;;;;5102188;28;20115;-70
2023/06/22 13:40:48;;;;;;;4.07;2.65;;;;;;;;;;5113481;28;20054;-71
2023/06/22 13:43:14;;;;;;;6.57;2.97;;;;;;;;;;5113480;28;20023;-71
2023/06/22 13:45:39;;;;;;;5.00;3.00;;;;;;;;;;5114402;28;20507;-71
2023/06/22 13:48:05;;;;;;;4.93;2.92;;;;;;;;;;5114562;28;20020;-71
2023/06/22 13:50:30;;;;;;;6.93;3.00;;;;;;;;;;5114306;28;20472;-71
2023/06/22 13:52:56;;;;;;;5.38;3.17;;;;;;;;;;5103023;28;20024;-73
2023/06/22 13:55:23;;;;;;;5.75;3.40;;;;;;;;;;5093974;28;20060;-72
2023/06/22 13:57:48;;;;;;;5.03;3.00;;;;;;;;;;5093718;28;20089;-73
2023/06/22 14:00:14;;;;;;;5.15;3.15;;;;;;;;;;5094005;28;20024;-71
2023/06/22 14:02:41;;;;;;;4.10;2.90;;;;;;;;;;5075392;28;20039;-72
2023/06/22 14:05:07;;;;;;;6.85;3.00;;;;;;;;;;5093851;28;20443;-71
2023/06/22 14:07:32;;;;;;;6.85;3.40;;;;;;;;;;5093957;28;20030;-72
2023/06/22 14:10:00;;;;;;;4.00;3.10;;;;;;;;;;5093497;28;20149;-72
2023/06/22 14:12:25;;;;;;;6.57;3.13;;;;;;;;;;5093065;28;20028;-72
2023/06/22 14:14:51;;;;;;;4.57;3.10;;;;;;;;;;5093799;28;20062;-71
2023/06/22 14:17:16;;;;;;;12.43;3.20;;;;;;;;;;5093275;28;20474;-71
2023/06/22 14:19:42;;;;;;;6.65;3.03;;;;;;;;;;5093320;28;20115;-73
2023/06/22 14:22:07;;;;;;;5.38;3.35;;;;;;;;;;5075121;28;20028;-75
2023/06/22 14:24:33;;;;;;;5.80;2.88;;;;;;;;;;5093302;28;20027;-72
2023/06/22 14:26:59;;;;;;;5.30;2.85;;;;;;;;;;5093659;28;20039;-72
2023/06/22 14:29:25;;;;;;;7.53;3.10;;;;;;;;;;5093483;28;20395;-74
2023/06/22 14:31:50;;;;;;;9.27;3.55;;;;;;;;;;5093126;28;20478;-74
2023/06/22 14:34:16;;;;;;;7.90;3.20;;;;;;;;;;5093465;28;20031;-74
2023/06/22 14:36:42;;;;;;;5.25;3.83;;;;;;;;;;5093252;28;20028;-74